createdAt,value
2023-02-02T00:02:01.044Z,1.80
2023-02-02T00:04:33.435Z,1.35
2023-02-02T00:07:01.359Z,1.52
2023-02-02T00:09:30.143Z,1.40
2023-02-02T00:11:57.251Z,1.98
2023-02-02T00:14:24.722Z,2.00
2023-02-02T00:16:53.298Z,1.65
2023-02-02T00:19:22.446Z,1.70
2023-02-02T00:21:49.123Z,1.60
2023-02-02T00:24:20.150Z,1.83
2023-02-02T00:26:49.644Z,2.30
2023-02-02T00:29:23.864Z,1.92
2023-02-02T00:31:51.094Z,1.75
2023-02-02T00:34:18.244Z,1.52
2023-02-02T00:36:45.231Z,1.48
2023-02-02T00:39:15.831Z,2.27
2023-02-02T00:41:42.229Z,2.38
2023-02-02T00:44:27.059Z,2.33
2023-02-02T00:46:53.414Z,2.28
2023-02-02T00:49:19.833Z,2.22
2023-02-02T00:51:46.214Z,2.10
2023-02-02T00:54:14.243Z,1.90
2023-02-02T00:56:41.515Z,1.35
2023-02-02T00:59:08.302Z,1.67
2023-02-02T01:01:35.013Z,2.20
2023-02-02T01:04:01.581Z,2.30
2023-02-02T01:06:28.057Z,3.03
2023-02-02T01:08:54.561Z,2.00
2023-02-02T01:11:21.221Z,2.15
2023-02-02T01:13:47.847Z,2.10
2023-02-02T01:16:14.361Z,1.90
2023-02-02T01:18:40.731Z,2.30
2023-02-02T01:21:10.512Z,2.47
2023-02-02T01:23:38.290Z,2.00
2023-02-02T01:26:08.955Z,2.35
2023-02-02T01:28:36.021Z,1.90
2023-02-02T01:31:12.438Z,1.92
2023-02-02T01:33:39.651Z,2.03
2023-02-02T01:36:09.946Z,1.60
2023-02-02T01:38:36.923Z,2.08
2023-02-02T01:41:04.630Z,2.23
2023-02-02T01:43:43.895Z,2.38
2023-02-02T01:46:18.457Z,2.03
2023-02-02T01:48:51.137Z,2.40
2023-02-02T01:51:20.931Z,2.03
2023-02-02T01:53:49.473Z,2.07
2023-02-02T01:56:24.593Z,2.33
2023-02-02T01:58:51.232Z,2.30
2023-02-02T02:01:17.790Z,2.05
2023-02-02T02:03:44.263Z,2.40
2023-02-02T02:06:15.494Z,2.10
2023-02-02T02:09:00.526Z,2.33
2023-02-02T02:11:27.003Z,2.25
2023-02-02T02:14:19.363Z,1.92
2023-02-02T02:16:51.278Z,1.70
2023-02-02T02:20:16.060Z,2.60
2023-02-02T02:23:35.030Z,2.15
2023-02-02T02:26:50.802Z,2.25
2023-02-02T02:29:41.785Z,2.05
2023-02-02T02:32:18.105Z,2.13
2023-02-02T02:35:12.272Z,1.70
2023-02-02T02:37:41.574Z,1.98
2023-02-02T02:40:17.418Z,2.35
2023-02-02T02:42:49.579Z,1.80
2023-02-02T02:45:17.802Z,2.10
2023-02-02T02:47:44.789Z,2.30
2023-02-02T02:50:12.009Z,2.08
2023-02-02T02:52:39.975Z,1.70
2023-02-02T02:55:07.993Z,1.98
2023-02-02T02:57:49.321Z,2.28
2023-02-02T03:00:31.648Z,1.43
2023-02-02T03:03:19.754Z,2.20
2023-02-02T03:05:58.531Z,1.95
2023-02-02T03:08:33.737Z,2.08
2023-02-02T03:11:02.421Z,1.90
2023-02-02T03:13:29.463Z,1.90
2023-02-02T03:15:56.509Z,2.20
2023-02-02T03:18:27.258Z,2.05
2023-02-02T03:20:53.633Z,2.65
2023-02-02T03:23:20.193Z,1.92
2023-02-02T03:25:46.660Z,1.73
2023-02-02T03:28:13.202Z,1.90
2023-02-02T03:30:42.011Z,2.75
2023-02-02T03:33:10.001Z,3.78
2023-02-02T03:35:36.423Z,2.00
2023-02-02T03:38:03.752Z,2.57
2023-02-02T03:40:30.170Z,1.90
2023-02-02T03:42:57.094Z,2.22
2023-02-02T03:45:26.792Z,2.80
2023-02-02T03:47:53.275Z,2.78
2023-02-02T03:50:19.805Z,2.60
2023-02-02T03:52:46.308Z,2.30
2023-02-02T03:55:12.732Z,2.25
2023-02-02T03:57:39.107Z,1.70
2023-02-02T04:00:06.219Z,2.45
2023-02-02T04:02:32.598Z,2.13
2023-02-02T04:04:59.008Z,2.00
2023-02-02T04:07:25.406Z,1.77
2023-02-02T04:09:51.754Z,2.45
2023-02-02T04:12:18.114Z,2.05
2023-02-02T04:14:44.542Z,2.10
2023-02-02T04:17:11.538Z,1.88
2023-02-02T04:19:38.349Z,1.77
2023-02-02T04:22:04.827Z,1.48
2023-02-02T04:24:31.245Z,1.42
2023-02-02T04:26:57.626Z,1.17
2023-02-02T04:29:25.134Z,0.77
2023-02-02T04:31:51.703Z,0.70
2023-02-02T04:34:18.223Z,1.00
2023-02-02T04:36:44.748Z,0.70
2023-02-02T04:39:11.988Z,0.90
2023-02-02T04:41:38.368Z,0.60
2023-02-02T04:44:06.740Z,0.50
2023-02-02T04:46:33.170Z,1.27
2023-02-02T04:48:59.538Z,0.50
2023-02-02T04:51:25.924Z,0.70
2023-02-02T04:53:52.279Z,0.40
2023-02-02T04:56:18.939Z,0.60
2023-02-02T04:58:46.175Z,0.40
2023-02-02T05:01:18.940Z,0.63
2023-02-02T05:03:45.916Z,0.73
2023-02-02T05:06:15.538Z,0.50
2023-02-02T05:08:43.312Z,0.57
2023-02-02T05:11:11.260Z,0.40
2023-02-02T05:13:37.735Z,0.40
2023-02-02T05:16:04.423Z,0.63
2023-02-02T05:18:31.560Z,0.30
2023-02-02T05:21:02.878Z,0.63
2023-02-02T05:23:30.353Z,0.50
2023-02-02T05:25:57.157Z,0.35
2023-02-02T05:28:24.052Z,0.50
2023-02-02T05:30:51.141Z,0.68
2023-02-02T05:33:20.659Z,0.50
2023-02-02T05:35:48.272Z,0.50
2023-02-02T05:38:15.755Z,0.70
2023-02-02T05:40:42.197Z,0.30
2023-02-02T05:43:08.593Z,0.50
2023-02-02T05:45:34.993Z,0.60
2023-02-02T05:48:01.379Z,0.60
2023-02-02T05:50:27.772Z,0.60
2023-02-02T05:52:54.306Z,0.60
2023-02-02T05:55:20.648Z,0.63
2023-02-02T05:57:47.033Z,0.73
2023-02-02T06:00:14.020Z,0.60
2023-02-02T06:02:40.434Z,0.50
2023-02-02T06:05:07.701Z,0.60
2023-02-02T06:07:34.102Z,0.50
2023-02-02T06:10:00.506Z,0.70
2023-02-02T06:12:26.895Z,0.50
2023-02-02T06:14:53.250Z,0.75
2023-02-02T06:17:19.623Z,0.70
2023-02-02T06:19:46.002Z,0.70
2023-02-02T06:22:12.451Z,1.02
2023-02-02T06:24:38.837Z,0.47
2023-02-02T06:27:05.508Z,0.80
2023-02-02T06:29:31.849Z,0.50
2023-02-02T06:31:58.475Z,0.90
2023-02-02T06:34:24.929Z,0.60
2023-02-02T06:36:51.306Z,0.80
2023-02-02T06:39:17.725Z,0.60
2023-02-02T06:41:46.539Z,0.40
2023-02-02T06:44:15.257Z,0.63
2023-02-02T06:46:42.520Z,0.60
2023-02-02T06:49:11.879Z,0.70
2023-02-02T06:51:38.327Z,0.50
2023-02-02T06:54:04.855Z,0.63
2023-02-02T06:56:31.240Z,0.70
2023-02-02T06:58:57.671Z,0.70
2023-02-02T07:01:24.152Z,1.25
2023-02-02T07:03:51.253Z,0.60
2023-02-02T07:06:23.910Z,0.40
2023-02-02T07:09:01.815Z,0.80
2023-02-02T07:11:31.554Z,0.77
2023-02-02T07:13:58.966Z,0.80
2023-02-02T07:16:25.447Z,0.80
2023-02-02T07:18:51.896Z,0.50
2023-02-02T07:21:23.980Z,0.80
2023-02-02T07:23:51.193Z,0.77
2023-02-02T07:26:18.811Z,0.70
2023-02-02T07:28:46.100Z,0.90
2023-02-02T07:31:18.165Z,0.60
2023-02-02T07:33:45.775Z,0.43
2023-02-02T07:51:40.410Z,1.10
2023-02-02T07:54:09.466Z,1.23
2023-02-02T07:56:37.891Z,0.82
2023-02-02T07:59:04.323Z,0.93
2023-02-02T08:01:30.770Z,1.02
2023-02-02T08:04:00.489Z,0.93
2023-02-02T08:06:29.797Z,0.77
2023-02-02T08:08:56.390Z,0.90
2023-02-02T08:11:24.940Z,1.02
2023-02-02T08:13:54.440Z,0.80
2023-02-02T08:16:21.884Z,0.90
2023-02-02T08:18:49.150Z,0.60
2023-02-02T08:21:16.711Z,1.10
2023-02-02T08:23:43.478Z,0.77
2023-02-02T08:26:22.245Z,1.00
2023-02-02T08:28:53.424Z,0.95
2023-02-02T08:31:43.125Z,0.87
2023-02-02T08:34:10.164Z,0.68
2023-02-02T08:36:37.022Z,0.80
2023-02-02T08:39:08.680Z,0.90
2023-02-02T08:41:36.818Z,1.00
2023-02-02T08:44:11.840Z,0.67
2023-02-02T08:46:38.371Z,0.70
2023-02-02T08:49:04.845Z,0.75
2023-02-02T08:51:31.285Z,0.75
2023-02-02T08:53:57.848Z,0.80
2023-02-02T08:56:24.540Z,0.70
2023-02-02T08:58:53.660Z,0.93
2023-02-02T09:01:25.897Z,0.70
2023-02-02T09:03:56.888Z,0.80
2023-02-02T09:06:28.590Z,0.75
2023-02-02T09:08:55.052Z,0.80
2023-02-02T09:11:21.465Z,0.65
2023-02-02T09:13:49.502Z,1.00
2023-02-02T09:16:18.306Z,0.70
2023-02-02T09:18:45.487Z,0.70
2023-02-02T09:21:14.623Z,0.90
2023-02-02T09:23:42.880Z,1.13
2023-02-02T09:26:10.692Z,0.90
2023-02-02T09:28:39.372Z,0.65
2023-02-02T09:31:06.581Z,0.80
2023-02-02T09:33:33.277Z,1.07
2023-02-02T09:36:08.119Z,0.70
2023-02-02T09:38:34.902Z,0.63
2023-02-02T09:41:03.171Z,0.90
2023-02-02T09:44:11.495Z,1.10
2023-02-02T09:46:56.641Z,0.67
2023-02-02T09:49:53.539Z,0.70
2023-02-02T09:52:29.994Z,0.70
2023-02-02T09:55:03.275Z,1.05
2023-02-02T09:57:37.835Z,1.00
2023-02-02T10:00:06.344Z,1.13
2023-02-02T10:02:45.800Z,0.90
2023-02-02T10:05:18.341Z,1.00
2023-02-02T10:07:48.770Z,0.93
2023-02-02T10:10:21.020Z,1.15
2023-02-02T10:13:05.945Z,1.10
2023-02-02T10:15:54.639Z,0.90
2023-02-02T10:18:34.750Z,0.90
2023-02-02T10:21:04.741Z,1.38
2023-02-02T10:23:37.351Z,1.13
2023-02-02T10:26:26.316Z,1.00
2023-02-02T10:29:28.067Z,1.10
2023-02-02T10:32:23.557Z,1.10
2023-02-02T10:35:12.680Z,0.82
2023-02-02T10:38:12.495Z,1.25
2023-02-02T10:40:58.193Z,1.27
2023-02-02T10:43:45.912Z,1.08
2023-02-02T10:46:22.362Z,1.10
2023-02-02T10:48:50.079Z,1.13
2023-02-02T10:51:29.713Z,1.20
2023-02-02T10:54:00.123Z,1.17
2023-02-02T10:56:43.013Z,1.23
2023-02-02T10:59:21.945Z,0.90
2023-02-02T11:01:48.717Z,0.95
2023-02-02T11:04:33.919Z,1.33
2023-02-02T11:07:01.620Z,1.10
2023-02-02T11:09:32.455Z,1.00
2023-02-02T11:12:13.689Z,1.17
2023-02-02T11:14:46.257Z,1.10
2023-02-02T11:17:20.889Z,1.30
2023-02-02T11:19:49.759Z,1.10
2023-02-02T11:22:30.672Z,1.00
2023-02-02T11:25:00.254Z,1.25
2023-02-02T11:27:33.258Z,1.20
2023-02-02T11:30:10.098Z,1.00
2023-02-02T11:32:37.807Z,1.10
2023-02-02T11:35:04.196Z,1.25
2023-02-02T11:37:31.907Z,0.98
2023-02-02T11:40:29.265Z,1.00
2023-02-02T11:42:58.369Z,1.30
2023-02-02T11:45:37.189Z,1.10
2023-02-02T11:48:22.189Z,1.38
2023-02-02T11:50:51.886Z,1.02
2023-02-02T11:53:33.822Z,1.20
2023-02-02T11:56:05.721Z,1.10
2023-02-02T11:58:52.956Z,1.17
2023-02-02T12:01:27.442Z,1.55
2023-02-02T12:03:57.049Z,1.27
2023-02-02T12:06:24.991Z,0.95
2023-02-02T12:08:56.016Z,1.20
2023-02-02T13:27:02.924Z,1.00
2023-02-02T13:29:48.221Z,0.70
2023-02-02T13:32:27.139Z,1.08
2023-02-02T13:35:16.063Z,0.88
2023-02-02T13:37:42.396Z,1.08
2023-02-02T13:40:24.591Z,0.90
2023-02-02T13:43:18.400Z,1.13
2023-02-02T13:46:06.817Z,1.60
2023-02-02T13:48:50.584Z,1.15
2023-02-02T13:51:19.973Z,1.10
2023-02-02T13:54:08.304Z,1.30
2023-02-02T13:56:45.933Z,0.82
2023-02-02T13:59:54.081Z,0.90
2023-02-02T14:02:29.534Z,1.20
2023-02-02T14:04:59.624Z,0.82
2023-02-02T14:07:47.177Z,1.00
2023-02-02T14:10:28.836Z,1.48
2023-02-02T14:12:56.269Z,2.58
2023-02-02T14:15:44.356Z,2.47
2023-02-02T14:18:10.832Z,2.90
2023-02-02T14:20:43.805Z,3.80
2023-02-02T14:23:52.386Z,2.83
2023-02-02T14:26:40.826Z,1.80
2023-02-02T14:29:29.280Z,1.30
2023-02-02T14:32:19.300Z,1.33
2023-02-02T14:34:45.742Z,1.30
2023-02-02T14:37:21.274Z,1.30
2023-02-02T14:40:06.193Z,1.15
2023-02-02T14:43:22.087Z,1.10
2023-02-02T14:46:10.785Z,1.00
2023-02-02T14:48:41.115Z,1.03
2023-02-02T14:51:18.082Z,1.50
2023-02-02T14:53:56.226Z,1.10
2023-02-02T14:56:38.972Z,1.90
2023-02-02T14:59:07.584Z,1.15
2023-02-02T15:01:37.332Z,1.07
2023-02-02T15:04:22.238Z,0.80
2023-02-02T15:06:51.083Z,0.70
2023-02-02T15:09:20.656Z,0.70
2023-02-02T15:12:01.049Z,1.00
2023-02-02T15:14:45.464Z,1.00
2023-02-02T15:17:33.884Z,1.25
2023-02-02T15:20:13.375Z,1.48
2023-02-02T15:23:00.929Z,1.85
2023-02-02T15:25:51.658Z,2.03
2023-02-02T15:28:21.466Z,1.90
2023-02-02T15:30:56.562Z,1.90
2023-02-02T15:33:37.280Z,2.40
2023-02-02T15:36:25.671Z,2.40
2023-02-02T15:39:02.882Z,2.33
2023-02-02T15:41:41.643Z,2.90
2023-02-02T15:44:28.078Z,3.05
2023-02-02T15:46:57.698Z,3.40
2023-02-02T15:49:34.891Z,4.10
2023-02-02T15:52:12.835Z,3.72
2023-02-02T15:54:49.701Z,4.00
2023-02-02T15:57:44.781Z,5.25
2023-02-02T16:00:31.062Z,5.97
2023-02-02T16:03:11.350Z,5.75
2023-02-02T16:05:37.656Z,11.90
2023-02-02T16:08:15.359Z,15.70
2023-02-02T16:10:41.930Z,14.65
2023-02-02T16:13:22.401Z,9.20
2023-02-02T16:15:59.037Z,7.18
2023-02-02T16:18:25.576Z,5.60
2023-02-02T16:20:54.125Z,5.50
2023-02-02T16:23:28.759Z,5.75
2023-02-02T16:25:59.782Z,6.45
2023-02-02T16:28:26.856Z,6.15
2023-02-02T16:30:53.736Z,6.00
2023-02-02T16:33:36.067Z,6.43
2023-02-02T16:36:25.391Z,5.82
2023-02-02T16:38:54.150Z,5.00
2023-02-02T16:41:36.981Z,5.53
2023-02-02T16:44:40.830Z,5.53
2023-02-02T16:47:28.066Z,5.30
2023-02-02T16:50:09.897Z,5.03
2023-02-02T16:52:57.139Z,5.65
2023-02-02T16:55:24.182Z,5.70
2023-02-02T16:57:51.849Z,5.75
2023-02-02T17:00:28.632Z,5.27
2023-02-02T17:03:04.454Z,5.95
2023-02-02T17:05:47.767Z,5.18
2023-02-02T17:08:14.255Z,4.70
2023-02-02T17:10:43.651Z,5.45
2023-02-02T17:13:36.597Z,5.17
2023-02-02T17:16:03.898Z,5.03
2023-02-02T17:18:30.415Z,5.60
2023-02-02T17:21:03.630Z,5.20
2023-02-02T17:23:32.108Z,5.10
2023-02-02T17:25:59.063Z,5.67
2023-02-02T17:28:27.093Z,5.93
2023-02-02T17:31:00.214Z,5.82
2023-02-02T17:33:27.527Z,5.38
2023-02-02T17:35:56.231Z,5.70
2023-02-02T17:38:25.076Z,6.40
2023-02-02T17:40:52.739Z,6.43
2023-02-02T17:43:19.179Z,6.50
2023-02-02T17:45:45.628Z,7.18
2023-02-02T17:48:13.380Z,7.57
2023-02-02T17:50:41.461Z,8.00
2023-02-02T17:53:16.241Z,8.05
2023-02-02T17:55:44.005Z,8.25
2023-02-02T19:03:52.153Z,7.28
2023-02-02T19:06:38.195Z,7.90
2023-02-02T19:09:05.790Z,6.93
2023-02-02T19:11:35.443Z,7.50
2023-02-02T19:14:01.820Z,7.57
2023-02-02T19:16:32.925Z,6.32
2023-02-02T19:19:11.413Z,6.63
2023-02-02T19:21:37.881Z,6.40
2023-02-02T19:24:10.903Z,6.35
2023-02-02T19:26:41.085Z,6.78
2023-02-02T19:29:20.027Z,6.35
2023-02-02T19:31:52.184Z,6.65
2023-02-02T19:34:21.494Z,6.43
2023-02-02T19:36:50.119Z,7.00
2023-02-02T19:39:30.752Z,6.43
2023-02-02T19:42:00.340Z,6.50
2023-02-02T19:44:32.215Z,6.60
2023-02-02T19:46:59.908Z,5.97
2023-02-02T19:49:30.433Z,5.68
2023-02-02T19:51:58.361Z,6.20
2023-02-02T19:54:34.881Z,5.00
2023-02-02T19:57:13.449Z,5.10
2023-02-02T19:59:41.999Z,5.07
2023-02-02T20:02:27.001Z,4.85
2023-02-02T20:05:05.947Z,4.90
2023-02-02T20:07:32.467Z,5.30
2023-02-02T20:10:13.876Z,4.70
2023-02-02T20:12:40.303Z,5.03
2023-02-02T20:15:31.263Z,4.47
2023-02-02T20:17:59.878Z,4.60
2023-02-02T20:20:29.642Z,4.50
2023-02-02T20:22:57.214Z,4.82
2023-02-02T20:25:23.764Z,4.57
2023-02-02T20:27:50.558Z,5.07
2023-02-02T20:30:23.647Z,4.95
2023-02-02T20:32:56.520Z,5.00
2023-02-02T20:35:38.507Z,4.90
2023-02-02T20:38:27.755Z,5.03
2023-02-02T20:40:55.373Z,4.40
2023-02-02T20:43:21.856Z,4.53
2023-02-02T20:45:48.810Z,4.32
2023-02-02T20:48:15.353Z,4.25
2023-02-02T20:50:42.445Z,4.33
2023-02-02T20:53:09.035Z,4.00
2023-02-02T20:55:36.794Z,4.50
2023-02-02T20:58:04.381Z,3.67
2023-02-02T21:00:30.846Z,3.72
2023-02-02T21:02:57.643Z,4.30
2023-02-02T21:05:24.725Z,3.72
2023-02-02T21:07:54.888Z,4.18
2023-02-02T21:10:25.220Z,4.18
2023-02-02T21:12:52.144Z,3.60
2023-02-02T21:15:19.083Z,3.77
2023-02-02T21:17:45.528Z,3.95
2023-02-02T21:20:13.296Z,4.05
2023-02-02T21:22:39.849Z,3.75
2023-02-02T21:25:06.643Z,3.13
2023-02-02T21:27:33.022Z,4.03
2023-02-02T21:29:59.448Z,3.63
2023-02-02T21:32:25.835Z,3.60
2023-02-02T21:34:52.215Z,3.60
2023-02-02T21:37:18.619Z,3.80
2023-02-02T21:39:49.505Z,3.90
2023-02-02T21:42:19.233Z,3.83
2023-02-02T21:44:56.247Z,3.00
2023-02-02T21:47:34.670Z,3.22
2023-02-02T21:50:13.836Z,3.47
2023-02-02T21:52:40.280Z,3.77
2023-02-02T21:55:18.853Z,3.00
2023-02-02T21:57:45.341Z,3.03
2023-02-02T22:00:30.840Z,2.97
2023-02-02T22:02:58.948Z,3.00
2023-02-02T22:05:36.761Z,2.73
2023-02-02T22:08:23.713Z,3.10
2023-02-02T22:10:50.112Z,2.53
2023-02-02T22:13:19.090Z,2.92
2023-02-02T22:15:51.058Z,2.10
2023-02-02T22:18:20.643Z,2.60
2023-02-02T22:20:50.361Z,2.20
2023-02-02T22:23:19.480Z,2.60
2023-02-02T22:25:48.084Z,2.25
2023-02-02T22:28:26.045Z,2.55
2023-02-02T22:30:54.015Z,2.20
2023-02-02T22:33:21.915Z,2.10
2023-02-02T22:35:48.378Z,1.98
2023-02-02T22:38:20.150Z,2.20
2023-02-02T22:40:48.038Z,2.10
2023-02-02T22:43:16.535Z,2.20
2023-02-02T22:45:44.092Z,1.65
2023-02-02T22:48:12.038Z,1.85
2023-02-02T22:50:38.914Z,1.60
2023-02-02T22:53:05.622Z,1.73
2023-02-02T22:55:32.904Z,1.80
2023-02-02T22:57:59.459Z,1.60
2023-02-02T23:00:28.744Z,1.55
2023-02-02T23:02:55.937Z,1.52
2023-02-02T23:05:23.703Z,1.50
2023-02-02T23:07:50.500Z,1.53
2023-02-02T23:10:19.257Z,1.30
2023-02-02T23:12:46.656Z,1.38
2023-02-02T23:15:14.477Z,1.58
2023-02-02T23:17:40.977Z,1.10
2023-02-02T23:20:10.381Z,1.27
2023-02-02T23:22:36.782Z,1.15
2023-02-02T23:25:03.417Z,1.33
2023-02-02T23:27:29.851Z,1.20
2023-02-02T23:29:56.229Z,1.23
2023-02-02T23:32:22.671Z,1.10
2023-02-02T23:34:49.064Z,1.30
2023-02-02T23:37:15.439Z,1.48
2023-02-02T23:39:41.831Z,1.17
2023-02-02T23:42:08.206Z,1.15
2023-02-02T23:44:34.639Z,1.40
2023-02-02T23:47:02.153Z,1.40
2023-02-02T23:49:30.367Z,1.52
2023-02-02T23:51:57.016Z,1.13
2023-02-02T23:54:23.562Z,1.40
2023-02-02T23:56:50.331Z,1.40
2023-02-02T23:59:16.739Z,1.30
